createdAt,value
2023-07-06T00:00:30.093Z,210.30
2023-07-06T00:01:30.179Z,210.63
2023-07-06T00:02:30.218Z,211.83
2023-07-06T00:03:30.230Z,211.92
2023-07-06T00:04:30.248Z,212.42
2023-07-06T00:05:30.225Z,214.10
2023-07-06T00:06:30.227Z,215.28
2023-07-06T00:07:30.237Z,211.17
2023-07-06T00:08:30.303Z,212.71
2023-07-06T00:09:30.288Z,214.82
2023-07-06T00:10:30.276Z,215.15
2023-07-06T00:11:30.297Z,210.34
2023-07-06T00:12:30.290Z,213.73
2023-07-06T00:13:30.364Z,214.49
2023-07-06T00:14:30.309Z,212.17
2023-07-06T00:15:30.318Z,209.82
2023-07-06T00:16:30.377Z,210.81
2023-07-06T00:17:30.418Z,211.29
2023-07-06T00:18:30.496Z,210.67
2023-07-06T00:19:30.552Z,212.15
2023-07-06T00:20:30.628Z,216.81
2023-07-06T00:21:30.602Z,216.21
2023-07-06T00:22:30.652Z,209.37
2023-07-06T00:23:30.735Z,208.90
2023-07-06T00:24:30.762Z,212.98
2023-07-06T00:25:30.844Z,215.79
2023-07-06T00:26:30.892Z,219.68
2023-07-06T00:27:30.948Z,225.41
2023-07-06T00:28:31.046Z,228.94
2023-07-06T00:29:31.080Z,228.01
2023-07-06T00:30:31.149Z,229.78
2023-07-06T00:31:31.240Z,230.05
2023-07-06T00:32:31.290Z,226.14
2023-07-06T00:33:31.262Z,226.22
2023-07-06T00:34:31.244Z,224.39
2023-07-06T00:35:31.278Z,221.53
2023-07-06T00:36:31.279Z,220.37
2023-07-06T00:37:31.287Z,217.55
2023-07-06T00:38:31.278Z,216.03
2023-07-06T00:39:31.277Z,216.15
2023-07-06T00:40:31.315Z,218.84
2023-07-06T00:41:31.311Z,222.92
2023-07-06T00:42:31.308Z,221.29
2023-07-06T00:43:31.329Z,223.22
2023-07-06T00:44:31.313Z,223.03
2023-07-06T00:45:31.337Z,223.78
2023-07-06T00:46:31.645Z,224.74
2023-07-06T00:47:31.394Z,221.36
2023-07-06T00:48:31.391Z,219.58
2023-07-06T00:49:31.362Z,221.00
2023-07-06T00:50:31.387Z,222.68
2023-07-06T00:51:31.393Z,221.49
2023-07-06T00:52:31.443Z,222.36
2023-07-06T00:53:31.463Z,223.53
2023-07-06T00:54:31.508Z,220.68
2023-07-06T00:55:31.587Z,221.40
2023-07-06T00:56:31.645Z,220.82
2023-07-06T00:57:31.718Z,220.17
2023-07-06T00:58:31.763Z,219.90
2023-07-06T00:59:31.783Z,219.12
2023-07-06T01:00:31.946Z,217.65
2023-07-06T01:01:31.985Z,218.37
2023-07-06T01:02:32.112Z,222.62
2023-07-06T01:03:32.236Z,220.95
2023-07-06T01:04:32.160Z,219.10
2023-07-06T01:05:32.280Z,216.97
2023-07-06T01:06:32.269Z,217.69
2023-07-06T01:07:32.305Z,217.84
2023-07-06T01:08:32.326Z,218.87
2023-07-06T01:09:32.328Z,222.20
2023-07-06T01:10:32.416Z,227.37
2023-07-06T01:11:32.363Z,232.74
2023-07-06T01:12:32.372Z,235.41
2023-07-06T01:13:32.404Z,232.41
2023-07-06T01:14:32.350Z,233.89
2023-07-06T01:15:32.431Z,229.89
2023-07-06T01:16:32.522Z,228.51
2023-07-06T01:17:32.425Z,227.96
2023-07-06T01:18:32.392Z,227.85
2023-07-06T01:19:32.398Z,231.10
2023-07-06T01:20:32.390Z,231.12
2023-07-06T01:21:32.400Z,226.78
2023-07-06T01:22:32.398Z,224.29
2023-07-06T01:23:32.433Z,221.47
2023-07-06T01:24:32.478Z,216.63
2023-07-06T01:25:32.528Z,211.19
2023-07-06T01:26:32.562Z,208.49
2023-07-06T01:27:32.589Z,207.45
2023-07-06T01:28:32.649Z,205.27
2023-07-06T01:29:32.707Z,203.47
2023-07-06T01:30:32.721Z,204.06
2023-07-06T01:31:32.849Z,203.44
2023-07-06T01:32:32.892Z,202.32
2023-07-06T01:33:32.924Z,204.14
2023-07-06T01:34:32.977Z,203.59
2023-07-06T01:35:33.044Z,204.04
2023-07-06T01:36:33.109Z,207.72
2023-07-06T01:37:33.204Z,206.24
2023-07-06T01:38:33.266Z,206.02
2023-07-06T01:39:33.312Z,211.39
2023-07-06T01:40:33.385Z,214.87
2023-07-06T01:41:33.465Z,214.79
2023-07-06T01:42:33.542Z,217.57
2023-07-06T01:43:33.521Z,214.57
2023-07-06T01:44:33.593Z,216.53
2023-07-06T01:45:33.600Z,216.53
2023-07-06T01:46:33.607Z,216.69
2023-07-06T01:47:33.652Z,216.05
2023-07-06T01:48:33.697Z,214.47
2023-07-06T01:49:33.661Z,218.29
2023-07-06T01:50:33.682Z,217.66
2023-07-06T01:51:33.708Z,216.30
2023-07-06T01:52:33.723Z,216.33
2023-07-06T01:53:33.740Z,216.99
2023-07-06T01:54:33.714Z,217.08
2023-07-06T01:55:33.735Z,217.21
2023-07-06T01:56:33.740Z,217.21
2023-07-06T01:57:43.250Z,219.34
2023-07-06T01:58:34.802Z,219.44
2023-07-06T01:59:33.804Z,219.51
2023-07-06T02:00:33.930Z,218.77
2023-07-06T02:01:33.828Z,221.10
2023-07-06T02:02:33.979Z,224.08
2023-07-06T02:03:33.881Z,226.56
2023-07-06T02:04:33.948Z,221.37
2023-07-06T02:05:33.869Z,219.63
2023-07-06T02:06:33.884Z,218.34
2023-07-06T02:07:33.872Z,219.04
2023-07-06T02:08:33.900Z,223.98
2023-07-06T02:09:33.929Z,223.56
2023-07-06T02:10:33.902Z,225.10
2023-07-06T02:11:33.961Z,227.43
2023-07-06T02:12:34.048Z,225.01
2023-07-06T02:13:34.166Z,222.28
2023-07-06T02:14:34.193Z,220.12
2023-07-06T02:15:34.209Z,215.84
2023-07-06T02:16:34.321Z,217.32
2023-07-06T02:17:34.320Z,219.66
2023-07-06T02:18:34.327Z,218.22
2023-07-06T02:19:34.388Z,215.44
2023-07-06T02:20:34.402Z,219.53
2023-07-06T02:21:34.434Z,215.02
2023-07-06T02:22:34.470Z,213.76
2023-07-06T02:23:34.607Z,213.87
2023-07-06T02:24:34.707Z,215.77
2023-07-06T02:25:34.754Z,216.75
2023-07-06T02:26:34.816Z,215.10
2023-07-06T02:27:34.852Z,215.57
2023-07-06T02:28:34.904Z,210.19
2023-07-06T02:29:34.916Z,204.54
2023-07-06T02:30:35.083Z,202.51
2023-07-06T02:31:35.044Z,204.01
2023-07-06T02:32:35.234Z,202.15
2023-07-06T02:33:35.164Z,201.97
2023-07-06T02:34:35.171Z,204.20
2023-07-06T02:35:35.195Z,203.67
2023-07-06T02:36:35.217Z,208.41
2023-07-06T02:37:35.232Z,216.00
2023-07-06T02:38:35.521Z,216.88
2023-07-06T02:39:35.272Z,215.95
2023-07-06T02:40:35.307Z,218.74
2023-07-06T02:41:35.347Z,226.82
2023-07-06T02:42:35.486Z,225.68
2023-07-06T02:43:35.486Z,232.08
2023-07-06T02:44:35.524Z,236.18
2023-07-06T02:45:35.627Z,232.89
2023-07-06T02:46:35.651Z,232.38
2023-07-06T02:47:35.696Z,229.34
2023-07-06T02:48:35.735Z,220.80
2023-07-06T02:49:35.803Z,221.84
2023-07-06T02:50:35.853Z,228.32
2023-07-06T02:51:35.904Z,234.30
2023-07-06T02:52:35.972Z,234.66
2023-07-06T02:53:36.020Z,234.68
2023-07-06T02:54:36.049Z,239.55
2023-07-06T02:55:36.022Z,243.68
2023-07-06T02:56:36.030Z,249.10
2023-07-06T02:57:36.059Z,250.74
2023-07-06T02:58:36.095Z,250.00
2023-07-06T02:59:36.194Z,248.66
2023-07-06T03:00:36.217Z,245.49
2023-07-06T03:01:36.350Z,239.32
2023-07-06T03:02:36.372Z,238.72
2023-07-06T03:03:36.390Z,235.69
2023-07-06T03:04:36.451Z,235.75
2023-07-06T03:05:36.479Z,236.06
2023-07-06T03:06:36.425Z,236.53
2023-07-06T03:07:36.398Z,237.19
2023-07-06T03:08:36.424Z,239.21
2023-07-06T03:09:36.432Z,236.59
2023-07-06T03:10:36.428Z,233.52
2023-07-06T03:11:36.425Z,234.31
2023-07-06T03:12:36.429Z,235.01
2023-07-06T03:13:36.484Z,232.86
2023-07-06T03:14:36.458Z,229.33
2023-07-06T03:15:36.453Z,230.11
2023-07-06T03:16:36.549Z,230.49
2023-07-06T03:17:36.611Z,230.07
2023-07-06T03:18:36.626Z,228.70
2023-07-06T03:19:36.666Z,227.79
2023-07-06T03:20:36.716Z,230.71
2023-07-06T03:21:36.740Z,229.33
2023-07-06T03:22:36.766Z,229.85
2023-07-06T03:23:36.809Z,233.52
2023-07-06T03:24:36.905Z,233.28
2023-07-06T03:25:36.959Z,232.52
2023-07-06T03:26:37.040Z,230.80
2023-07-06T03:27:36.996Z,231.49
2023-07-06T03:28:37.034Z,234.64
2023-07-06T03:29:37.118Z,237.95
2023-07-06T03:30:37.094Z,237.93
2023-07-06T03:31:37.239Z,236.22
2023-07-06T03:32:37.288Z,229.97
2023-07-06T03:33:37.302Z,228.56
2023-07-06T03:34:37.351Z,231.27
2023-07-06T03:35:37.390Z,236.07
2023-07-06T03:36:37.413Z,238.92
2023-07-06T03:37:37.475Z,244.42
2023-07-06T03:38:37.517Z,249.13
2023-07-06T03:39:37.604Z,248.62
2023-07-06T03:40:37.624Z,250.00
2023-07-06T03:41:37.628Z,249.87
2023-07-06T03:42:37.702Z,246.63
2023-07-06T03:43:37.774Z,246.38
2023-07-06T03:44:37.802Z,246.50
2023-07-06T03:45:37.802Z,247.26
2023-07-06T03:46:38.016Z,249.93
2023-07-06T03:47:37.865Z,252.48
2023-07-06T03:48:37.791Z,252.74
2023-07-06T03:49:37.784Z,249.73
2023-07-06T03:50:37.812Z,249.47
2023-07-06T03:51:37.816Z,250.50
2023-07-06T03:52:37.785Z,249.80
2023-07-06T03:53:37.782Z,250.00
2023-07-06T03:54:37.796Z,250.00
2023-07-06T03:55:37.791Z,249.83
2023-07-06T03:56:37.802Z,247.42
2023-07-06T03:57:42.298Z,249.76
2023-07-06T03:58:38.803Z,249.89
2023-07-06T03:59:37.790Z,250.37
2023-07-06T04:00:37.821Z,250.07
2023-07-06T04:01:37.965Z,250.89
2023-07-06T04:02:37.850Z,252.15
2023-07-06T04:03:37.837Z,251.54
2023-07-06T04:04:37.807Z,250.53
2023-07-06T04:05:37.979Z,250.47
2023-07-06T04:06:37.798Z,250.00
2023-07-06T04:07:37.798Z,250.00
2023-07-06T04:08:37.788Z,249.72
2023-07-06T04:09:37.813Z,249.49
2023-07-06T04:10:37.804Z,249.83
2023-07-06T04:11:37.788Z,248.90
2023-07-06T04:12:37.856Z,250.06
2023-07-06T04:13:37.959Z,250.00
2023-07-06T04:14:37.866Z,250.15
2023-07-06T04:15:37.860Z,250.12
2023-07-06T04:16:37.945Z,250.11
2023-07-06T04:17:37.918Z,248.22
2023-07-06T04:18:37.878Z,248.21
2023-07-06T04:19:37.889Z,248.69
2023-07-06T04:20:37.901Z,246.01
2023-07-06T04:21:37.900Z,244.25
2023-07-06T04:22:37.896Z,245.46
2023-07-06T04:23:37.910Z,247.62
2023-07-06T04:24:37.928Z,249.01
2023-07-06T04:25:37.898Z,249.94
2023-07-06T04:26:37.902Z,250.00
2023-07-06T04:27:37.902Z,249.98
2023-07-06T04:28:37.919Z,247.88
2023-07-06T04:29:37.935Z,248.95
2023-07-06T04:30:37.937Z,250.00
2023-07-06T04:31:38.088Z,250.00
2023-07-06T04:32:37.989Z,249.66
2023-07-06T04:33:37.980Z,247.02
2023-07-06T04:34:38.062Z,240.70
2023-07-06T04:35:40.319Z,235.44
2023-07-06T04:36:38.239Z,233.52
2023-07-06T04:37:38.275Z,233.58
2023-07-06T04:38:38.343Z,234.61
2023-07-06T04:39:38.396Z,236.00
2023-07-06T04:40:38.432Z,237.14
2023-07-06T04:41:38.579Z,234.65
2023-07-06T04:42:38.521Z,234.80
2023-07-06T04:43:38.579Z,234.21
2023-07-06T04:44:38.655Z,235.78
2023-07-06T04:45:38.667Z,242.53
2023-07-06T04:46:38.763Z,241.03
2023-07-06T04:47:38.787Z,237.82
2023-07-06T04:48:38.800Z,236.90
2023-07-06T04:49:38.861Z,234.45
2023-07-06T04:50:39.076Z,234.86
2023-07-06T04:51:38.928Z,236.16
2023-07-06T04:52:38.922Z,236.48
2023-07-06T04:53:38.985Z,236.64
2023-07-06T04:54:39.043Z,239.02
2023-07-06T04:55:39.123Z,238.97
2023-07-06T04:56:39.137Z,238.18
2023-07-06T04:57:39.182Z,237.76
2023-07-06T04:58:39.230Z,238.54
2023-07-06T04:59:39.288Z,240.67
2023-07-06T05:00:39.267Z,245.23
2023-07-06T05:01:39.303Z,248.05
2023-07-06T05:02:39.346Z,247.29
2023-07-06T05:03:39.406Z,246.21
2023-07-06T05:04:39.428Z,247.04
2023-07-06T05:05:39.480Z,247.72
2023-07-06T05:06:39.481Z,247.19
2023-07-06T05:07:39.503Z,247.30
2023-07-06T05:08:39.489Z,248.06
2023-07-06T05:09:39.490Z,247.43
2023-07-06T05:10:39.559Z,244.45
2023-07-06T05:11:39.423Z,242.18
2023-07-06T05:12:39.404Z,244.22
2023-07-06T05:13:39.430Z,246.15
2023-07-06T05:14:39.383Z,246.99
2023-07-06T05:15:39.405Z,242.36
2023-07-06T05:16:39.417Z,242.54
2023-07-06T05:17:39.376Z,243.91
2023-07-06T05:18:39.347Z,247.90
2023-07-06T05:19:39.348Z,249.69
2023-07-06T05:20:39.425Z,250.55
2023-07-06T05:21:39.332Z,250.48
2023-07-06T05:22:39.326Z,248.58
2023-07-06T05:23:39.319Z,249.42
2023-07-06T05:24:39.367Z,250.44
2023-07-06T05:25:39.323Z,247.60
2023-07-06T05:26:39.907Z,246.58
2023-07-06T05:27:39.427Z,245.99
2023-07-06T05:28:39.364Z,245.82
2023-07-06T05:29:39.616Z,245.68
2023-07-06T05:30:39.345Z,248.12
2023-07-06T05:31:39.326Z,254.22
2023-07-06T05:32:39.334Z,254.33
2023-07-06T05:33:39.296Z,254.39
2023-07-06T05:34:39.516Z,255.64
2023-07-06T05:35:39.268Z,257.61
2023-07-06T05:36:39.386Z,257.85
2023-07-06T05:37:39.288Z,249.99
2023-07-06T05:38:39.268Z,245.49
2023-07-06T05:39:39.231Z,244.41
2023-07-06T05:40:39.186Z,241.06
2023-07-06T05:41:39.202Z,241.15
2023-07-06T05:42:39.934Z,245.64
2023-07-06T05:43:39.176Z,245.97
2023-07-06T05:44:39.436Z,240.59
2023-07-06T05:45:39.155Z,242.94
2023-07-06T05:46:39.166Z,246.74
2023-07-06T05:47:39.171Z,250.00
2023-07-06T05:48:39.159Z,249.06
2023-07-06T05:49:39.215Z,250.00
2023-07-06T05:50:39.238Z,249.09
2023-07-06T05:51:39.264Z,244.31
2023-07-06T05:52:39.324Z,243.14
2023-07-06T05:53:39.342Z,238.18
2023-07-06T05:54:39.372Z,236.60
2023-07-06T05:55:39.403Z,239.40
2023-07-06T05:56:39.443Z,241.02
2023-07-06T05:57:39.475Z,239.67
2023-07-06T05:58:39.559Z,236.15
2023-07-06T05:59:39.551Z,236.12
2023-07-06T06:00:39.547Z,236.05
2023-07-06T06:01:39.643Z,236.23
2023-07-06T06:02:39.703Z,237.68
2023-07-06T06:03:40.474Z,239.68
2023-07-06T06:04:39.915Z,242.20
2023-07-06T06:05:39.696Z,245.79
2023-07-06T06:06:39.690Z,248.40
2023-07-06T06:07:40.449Z,245.68
2023-07-06T06:08:39.638Z,245.94
2023-07-06T06:09:39.604Z,247.91
2023-07-06T06:10:39.642Z,248.62
2023-07-06T06:11:39.564Z,249.62
2023-07-06T06:12:39.581Z,247.31
2023-07-06T06:13:39.569Z,250.55
2023-07-06T06:14:39.531Z,249.99
2023-07-06T06:15:39.511Z,242.46
2023-07-06T06:16:39.492Z,239.14
2023-07-06T06:17:39.548Z,234.63
2023-07-06T06:18:41.216Z,237.20
2023-07-06T06:19:39.410Z,233.07
2023-07-06T06:20:39.380Z,232.51
2023-07-06T06:21:39.378Z,234.66
2023-07-06T06:22:39.379Z,236.50
2023-07-06T06:23:39.312Z,235.80
2023-07-06T06:24:39.279Z,236.83
2023-07-06T06:25:39.274Z,251.89
2023-07-06T06:26:39.214Z,255.39
2023-07-06T06:27:39.208Z,252.96
2023-07-06T06:28:39.174Z,250.78
2023-07-06T06:29:39.444Z,245.22
2023-07-06T06:30:39.125Z,242.82
2023-07-06T06:31:39.134Z,243.72
2023-07-06T06:32:39.160Z,250.00
2023-07-06T06:33:39.093Z,242.32
2023-07-06T06:34:39.181Z,241.97
2023-07-06T06:35:39.942Z,232.41
2023-07-06T06:36:39.481Z,228.64
2023-07-06T06:37:39.087Z,224.01
2023-07-06T06:38:38.981Z,221.70
2023-07-06T06:39:39.030Z,223.42
2023-07-06T06:40:38.950Z,227.37
2023-07-06T06:41:38.916Z,226.38
2023-07-06T06:42:38.861Z,227.77
2023-07-06T06:43:38.829Z,231.64
2023-07-06T06:44:38.798Z,238.26
2023-07-06T06:45:38.769Z,240.35
2023-07-06T06:46:38.810Z,234.92
2023-07-06T06:47:38.729Z,230.43
2023-07-06T06:48:38.670Z,225.40
2023-07-06T06:49:38.964Z,226.65
2023-07-06T06:50:38.586Z,224.21
2023-07-06T06:51:38.550Z,220.50
2023-07-06T06:52:38.574Z,221.61
2023-07-06T06:53:38.484Z,221.99
2023-07-06T06:54:39.458Z,223.81
2023-07-06T06:55:38.421Z,225.34
2023-07-06T06:56:38.423Z,226.09
2023-07-06T06:57:38.375Z,225.47
2023-07-06T06:58:38.389Z,225.81
2023-07-06T06:59:38.318Z,224.45
2023-07-06T07:00:38.279Z,216.74
2023-07-06T07:01:38.274Z,211.45
2023-07-06T07:02:38.266Z,209.11
2023-07-06T07:03:38.252Z,208.43
2023-07-06T07:04:38.185Z,209.36
2023-07-06T07:05:38.167Z,208.54
2023-07-06T07:06:38.118Z,202.41
2023-07-06T07:07:38.084Z,203.15
2023-07-06T07:08:38.973Z,211.58
2023-07-06T07:09:38.134Z,217.70
2023-07-06T07:10:38.207Z,216.90
2023-07-06T07:11:38.105Z,210.21
2023-07-06T07:12:38.134Z,209.56
2023-07-06T07:13:38.226Z,212.73
2023-07-06T07:14:38.977Z,217.61
2023-07-06T07:15:38.162Z,218.14
2023-07-06T07:16:38.243Z,211.04
2023-07-06T07:17:38.297Z,209.64
2023-07-06T07:18:38.991Z,204.90
2023-07-06T07:19:38.537Z,203.98
2023-07-06T07:20:38.181Z,206.13
2023-07-06T07:21:38.168Z,209.32
2023-07-06T07:22:38.179Z,207.59
2023-07-06T07:23:38.167Z,204.33
2023-07-06T07:24:38.261Z,203.94
2023-07-06T07:25:38.152Z,204.40
2023-07-06T07:26:38.176Z,203.08
2023-07-06T07:27:38.162Z,204.29
2023-07-06T07:28:38.154Z,204.33
2023-07-06T07:29:38.089Z,204.95
2023-07-06T07:30:38.023Z,205.86
2023-07-06T07:31:38.007Z,210.30
2023-07-06T07:32:37.934Z,220.30
2023-07-06T07:33:37.937Z,222.64
2023-07-06T07:34:37.897Z,227.08
2023-07-06T07:35:37.836Z,230.85
2023-07-06T07:36:37.970Z,233.70
2023-07-06T07:37:37.890Z,232.46
2023-07-06T07:38:37.729Z,231.88
2023-07-06T07:39:37.730Z,233.61
2023-07-06T07:40:37.699Z,232.30
2023-07-06T07:41:37.698Z,230.62
2023-07-06T07:42:37.652Z,230.74
2023-07-06T07:43:37.648Z,230.84
2023-07-06T07:44:37.613Z,231.79
2023-07-06T07:45:37.680Z,233.70
2023-07-06T07:46:37.739Z,238.89
2023-07-06T07:47:37.621Z,237.53
2023-07-06T07:48:37.613Z,233.53
2023-07-06T07:49:37.967Z,228.54
2023-07-06T07:50:37.626Z,221.39
2023-07-06T07:51:37.655Z,217.50
2023-07-06T07:52:37.619Z,215.74
2023-07-06T07:53:40.106Z,214.33
2023-07-06T07:54:37.707Z,212.90
2023-07-06T07:55:37.651Z,210.92
2023-07-06T07:56:37.827Z,205.52
2023-07-06T07:57:37.635Z,203.87
2023-07-06T07:58:37.992Z,200.34
2023-07-06T07:59:37.696Z,202.40
2023-07-06T08:00:38.647Z,203.77
2023-07-06T08:01:38.707Z,203.57
2023-07-06T08:02:37.927Z,207.12
2023-07-06T08:03:38.860Z,204.53
2023-07-06T08:04:40.199Z,199.64
2023-07-06T08:05:37.658Z,199.62
2023-07-06T08:06:37.646Z,202.46
2023-07-06T08:07:37.657Z,202.30
2023-07-06T08:08:38.471Z,204.40
2023-07-06T08:09:37.682Z,209.94
2023-07-06T08:10:37.673Z,211.74
2023-07-06T08:11:37.657Z,211.57
2023-07-06T08:12:37.733Z,208.00
2023-07-06T08:13:37.686Z,202.30
2023-07-06T08:14:37.655Z,199.51
2023-07-06T08:15:37.740Z,198.66
2023-07-06T08:16:37.701Z,193.26
2023-07-06T08:17:37.650Z,186.87
2023-07-06T08:18:37.669Z,180.06
2023-07-06T08:19:55.145Z,176.19
2023-07-06T08:21:08.794Z,172.83
2023-07-06T08:22:38.596Z,164.32
2023-07-06T08:23:37.602Z,161.39
2023-07-06T08:24:37.544Z,165.12
2023-07-06T08:25:37.521Z,169.44
2023-07-06T08:26:37.535Z,163.18
2023-07-06T08:27:37.452Z,156.79
2023-07-06T08:28:37.414Z,145.13
2023-07-06T08:29:37.387Z,136.52
2023-07-06T08:30:37.356Z,126.11
2023-07-06T08:31:37.399Z,120.67
2023-07-06T08:32:37.362Z,126.25
2023-07-06T08:33:37.255Z,107.23
2023-07-06T08:34:37.430Z,97.00
2023-07-06T08:35:37.143Z,95.17
2023-07-06T08:36:37.972Z,90.32
2023-07-06T08:37:37.019Z,94.67
2023-07-06T08:38:37.021Z,83.40
2023-07-06T08:39:36.989Z,72.71
2023-07-06T08:40:36.888Z,61.73
2023-07-06T08:41:36.846Z,63.64
2023-07-06T08:42:36.784Z,34.89
2023-07-06T08:43:36.714Z,46.79
2023-07-06T08:44:36.743Z,43.30
2023-07-06T08:45:36.618Z,9.61
2023-07-06T08:46:36.612Z,26.70
2023-07-06T08:47:36.548Z,4.16
2023-07-06T08:48:36.483Z,8.25
2023-07-06T08:49:36.373Z,12.01
2023-07-06T08:50:36.333Z,27.56
2023-07-06T08:51:36.215Z,27.11
2023-07-06T08:52:36.118Z,27.73
2023-07-06T08:53:36.047Z,25.00
2023-07-06T08:54:36.046Z,21.89
2023-07-06T08:55:35.882Z,27.08
2023-07-06T08:56:35.853Z,35.55
2023-07-06T08:57:35.749Z,43.17
2023-07-06T08:58:35.688Z,17.95
2023-07-06T08:59:35.646Z,2.99
2023-07-06T09:00:35.584Z,6.17
2023-07-06T09:01:35.564Z,9.07
2023-07-06T09:02:35.553Z,17.69
2023-07-06T09:03:35.542Z,17.44
2023-07-06T09:04:35.449Z,13.36
2023-07-06T09:05:35.389Z,3.37
2023-07-06T09:06:35.322Z,14.52
2023-07-06T09:07:35.250Z,20.11
2023-07-06T09:08:35.246Z,24.19
2023-07-06T09:09:35.231Z,29.31
2023-07-06T09:10:35.120Z,39.27
2023-07-06T09:11:38.382Z,33.98
2023-07-06T09:12:34.985Z,38.59
2023-07-06T09:13:34.916Z,52.29
2023-07-06T09:14:34.817Z,52.13
2023-07-06T09:15:37.689Z,53.31
2023-07-06T09:16:34.656Z,54.13
2023-07-06T09:17:35.608Z,53.43
2023-07-06T09:18:34.517Z,58.12
2023-07-06T09:19:36.583Z,67.78
2023-07-06T09:20:35.000Z,60.34
2023-07-06T09:21:34.318Z,71.35
2023-07-06T09:22:34.329Z,74.58
2023-07-06T09:23:34.365Z,68.10
2023-07-06T09:24:34.051Z,68.78
2023-07-06T09:25:33.986Z,76.39
2023-07-06T09:26:34.343Z,70.99
2023-07-06T09:27:34.586Z,73.78
2023-07-06T09:28:33.850Z,70.22
2023-07-06T09:29:35.585Z,64.94
2023-07-06T09:30:34.567Z,67.85
2023-07-06T09:31:33.693Z,65.37
2023-07-06T09:32:33.753Z,63.93
2023-07-06T09:33:33.587Z,60.07
2023-07-06T09:34:33.613Z,58.12
2023-07-06T09:35:33.605Z,52.46
2023-07-06T09:36:33.508Z,47.58
2023-07-06T09:37:33.494Z,51.09
2023-07-06T09:38:33.851Z,45.33
2023-07-06T09:39:33.489Z,42.74
2023-07-06T09:40:33.979Z,40.73
2023-07-06T09:41:33.500Z,35.80
2023-07-06T09:42:34.105Z,34.68
2023-07-06T09:43:33.460Z,37.98
2023-07-06T09:44:33.365Z,44.44
2023-07-06T09:45:33.550Z,50.87
2023-07-06T09:46:33.329Z,46.31
2023-07-06T09:47:33.264Z,52.67
2023-07-06T09:48:33.190Z,49.14
2023-07-06T09:49:33.154Z,50.33
2023-07-06T09:50:33.120Z,55.57
2023-07-06T09:51:33.086Z,67.17
2023-07-06T09:52:33.047Z,62.74
2023-07-06T09:53:33.018Z,60.08
2023-07-06T09:54:32.878Z,63.91
2023-07-06T09:55:32.844Z,68.73
2023-07-06T09:56:32.718Z,73.54
2023-07-06T09:57:32.767Z,83.51
2023-07-06T09:58:33.563Z,41.81
2023-07-06T09:59:32.514Z,29.32
2023-07-06T10:00:32.431Z,15.03
2023-07-06T10:01:32.366Z,17.01
2023-07-06T10:02:32.276Z,0.00
2023-07-06T10:03:32.175Z,2.44
2023-07-06T10:04:32.101Z,25.29
2023-07-06T10:05:32.176Z,20.93
2023-07-06T10:06:32.014Z,28.55
2023-07-06T10:07:31.899Z,25.58
2023-07-06T10:08:31.917Z,31.66
2023-07-06T10:09:31.838Z,31.51
2023-07-06T10:10:31.912Z,41.44
2023-07-06T10:11:31.718Z,32.23
2023-07-06T10:12:31.673Z,31.81
2023-07-06T10:13:31.663Z,45.84
2023-07-06T10:14:31.567Z,53.23
2023-07-06T10:15:31.538Z,60.49
2023-07-06T10:16:31.490Z,58.71
2023-07-06T10:17:31.421Z,43.27
2023-07-06T10:18:31.329Z,35.80
2023-07-06T10:19:31.258Z,41.11
2023-07-06T10:20:31.267Z,60.32
2023-07-06T10:21:31.132Z,48.24
2023-07-06T10:22:31.100Z,33.42
2023-07-06T10:23:31.026Z,30.17
2023-07-06T10:24:31.015Z,30.09
2023-07-06T10:25:30.898Z,47.50
2023-07-06T10:26:30.812Z,50.53
2023-07-06T10:27:30.744Z,58.74
2023-07-06T10:28:30.731Z,51.45
2023-07-06T10:29:30.618Z,44.73
2023-07-06T10:30:30.618Z,45.70
2023-07-06T10:31:32.736Z,45.21
2023-07-06T10:32:30.625Z,43.19
2023-07-06T10:33:30.588Z,45.43
2023-07-06T10:34:30.604Z,38.13
2023-07-06T10:35:30.535Z,33.52
2023-07-06T10:36:30.446Z,32.43
2023-07-06T10:38:50.081Z,25.00
2023-07-06T10:39:49.423Z,25.00
2023-07-06T10:40:49.402Z,25.00
2023-07-06T10:41:49.411Z,25.00
2023-07-06T10:42:49.384Z,25.00
2023-07-06T10:43:49.395Z,25.00
2023-07-06T10:44:49.367Z,25.00
2023-07-06T10:45:49.443Z,25.00
2023-07-06T10:46:49.349Z,25.00
2023-07-06T10:47:49.397Z,25.00
2023-07-06T10:48:49.292Z,107.31
2023-07-06T10:49:49.320Z,89.98
2023-07-06T10:50:49.289Z,143.34
2023-07-06T10:51:49.246Z,110.33
2023-07-06T10:52:49.267Z,193.90
2023-07-06T10:53:49.239Z,141.80
2023-07-06T10:54:49.337Z,33.91
2023-07-06T10:55:49.214Z,0.00
2023-07-06T10:56:49.189Z,19.21
2023-07-06T10:57:49.194Z,49.12
2023-07-06T10:58:49.170Z,54.27
2023-07-06T10:59:49.138Z,47.69
2023-07-06T11:00:49.177Z,25.60
2023-07-06T11:01:49.256Z,59.35
2023-07-06T11:02:50.118Z,104.55
2023-07-06T11:03:49.193Z,142.61
2023-07-06T11:04:49.075Z,94.83
2023-07-06T11:05:49.090Z,52.26
2023-07-06T11:06:49.076Z,39.39
2023-07-06T11:07:49.037Z,60.85
2023-07-06T11:08:49.000Z,56.52
2023-07-06T11:09:49.026Z,46.10
2023-07-06T11:10:48.968Z,59.67
2023-07-06T11:11:48.952Z,76.23
2023-07-06T11:12:48.946Z,61.02
2023-07-06T11:13:48.966Z,15.92
2023-07-06T11:14:48.905Z,67.35
2023-07-06T11:15:48.971Z,140.65
2023-07-06T11:16:48.992Z,141.51
2023-07-06T11:17:48.910Z,142.58
2023-07-06T11:18:48.797Z,144.81
2023-07-06T11:19:48.753Z,214.31
2023-07-06T11:20:48.758Z,185.41
2023-07-06T11:21:48.727Z,203.68
2023-07-06T11:22:48.764Z,182.29
2023-07-06T11:23:48.677Z,213.30
2023-07-06T11:24:48.686Z,176.15
2023-07-06T11:25:48.649Z,201.60
2023-07-06T11:26:48.649Z,249.65
2023-07-06T11:27:48.701Z,198.50
2023-07-06T11:28:48.773Z,223.34
2023-07-06T11:29:48.734Z,251.56
2023-07-06T11:30:48.794Z,258.64
2023-07-06T11:31:49.039Z,262.68
2023-07-06T11:32:48.853Z,271.25
2023-07-06T11:33:48.861Z,251.73
2023-07-06T11:34:48.875Z,255.62
2023-07-06T11:35:48.890Z,275.07
2023-07-06T11:36:48.915Z,315.47
2023-07-06T11:37:58.427Z,320.80
2023-07-06T11:38:49.996Z,277.90
2023-07-06T11:39:49.035Z,313.13
2023-07-06T11:40:49.082Z,302.15
2023-07-06T11:41:49.055Z,295.93
2023-07-06T11:42:49.084Z,320.14
2023-07-06T11:43:49.094Z,319.49
2023-07-06T11:44:49.152Z,317.78
2023-07-06T11:45:49.183Z,311.45
2023-07-06T11:46:49.225Z,313.93
2023-07-06T11:47:49.488Z,316.07
2023-07-06T11:48:49.300Z,299.86
2023-07-06T11:49:49.313Z,306.55
2023-07-06T11:50:49.431Z,278.72
2023-07-06T11:51:49.437Z,281.32
2023-07-06T11:52:49.530Z,284.88
2023-07-06T11:53:49.547Z,261.82
2023-07-06T11:54:49.660Z,251.47
2023-07-06T11:55:49.776Z,250.13
2023-07-06T11:56:49.853Z,263.88
2023-07-06T11:57:49.956Z,266.71
2023-07-06T11:58:50.060Z,280.35
2023-07-06T11:59:50.170Z,283.73
2023-07-06T12:00:50.639Z,285.75
2023-07-06T12:01:50.354Z,294.72
2023-07-06T12:02:50.518Z,299.88
2023-07-06T12:03:50.602Z,298.79
2023-07-06T12:04:51.876Z,294.76
2023-07-06T12:05:52.205Z,292.05
2023-07-06T12:06:50.829Z,290.66
2023-07-06T12:07:50.919Z,283.50
2023-07-06T12:08:51.034Z,264.27
2023-07-06T12:09:51.171Z,247.06
2023-07-06T12:10:51.359Z,248.17
2023-07-06T12:11:51.385Z,247.80
2023-07-06T12:12:51.443Z,222.72
2023-07-06T12:13:51.569Z,223.76
2023-07-06T12:14:51.699Z,235.47
2023-07-06T12:15:51.728Z,238.16
2023-07-06T12:16:51.799Z,237.89
2023-07-06T12:17:51.879Z,219.36
2023-07-06T12:18:51.951Z,216.77
2023-07-06T12:19:52.042Z,206.22
2023-07-06T12:20:52.107Z,205.40
2023-07-06T12:21:52.188Z,202.05
2023-07-06T12:22:52.282Z,213.37
2023-07-06T12:23:52.332Z,228.34
2023-07-06T12:24:52.393Z,220.07
2023-07-06T12:25:52.500Z,153.41
2023-07-06T12:26:52.567Z,117.20
2023-07-06T12:27:52.601Z,44.92
2023-07-06T12:28:54.679Z,0.00
2023-07-06T12:29:52.762Z,0.00
2023-07-06T12:30:52.875Z,0.00
2023-07-06T12:31:52.970Z,8.03
2023-07-06T12:32:53.037Z,25.32
2023-07-06T12:33:53.223Z,18.75
2023-07-06T12:34:53.305Z,26.72
2023-07-06T12:35:53.418Z,45.06
2023-07-06T12:36:53.503Z,74.28